Time;durP1;ratioP1;P1;durP2;ratioP2;P2;SDS_P1;SDS_P2;PMS_P1;PMS_P2;Temp;Humidity;BMP_temperature;BMP_pressure;BME280_temperature;BME280_humidity;BME280_pressure;Samples;Min_cycle;Max_cycle;Signal;HPM_P1;HPM_P2
2023/06/25 00:00:35;;;;;;;6.10;3.50;;;17.30;99.90;;;;;;4917999;29;20185;-91
2023/06/25 00:03:01;;;;;;;6.03;3.50;;;17.30;99.90;;;;;;4917377;29;20241;-91
2023/06/25 00:05:26;;;;;;;7.15;3.42;;;17.30;99.90;;;;;;4916351;29;20557;-91
2023/06/25 00:07:52;;;;;;;5.03;3.25;;;17.30;99.90;;;;;;4916765;29;20185;-90
2023/06/25 00:10:18;;;;;;;6.32;3.70;;;17.30;99.90;;;;;;4918070;29;20189;-91
2023/06/25 00:12:44;;;;;;;4.85;3.00;;;17.30;99.90;;;;;;4917938;29;20188;-90
2023/06/25 00:15:11;;;;;;;4.88;3.03;;;17.30;99.90;;;;;;4916430;29;20292;-90
2023/06/25 00:17:37;;;;;;;6.85;3.72;;;17.30;99.90;;;;;;4917606;29;20244;-90
2023/06/25 00:20:03;;;;;;;5.53;3.65;;;17.30;99.90;;;;;;4917846;29;20216;-90
2023/06/25 00:22:29;;;;;;;7.28;3.72;;;17.30;99.90;;;;;;4917480;29;20297;-90
2023/06/25 00:24:54;;;;;;;6.97;3.90;;;17.20;99.90;;;;;;4917871;29;20212;-90
2023/06/25 00:27:20;;;;;;;7.68;3.30;;;;;;;;;;4917210;29;20268;-90
2023/06/25 00:29:46;;;;;;;5.95;3.10;;;17.10;99.90;;;;;;4917556;29;20185;-90
2023/06/25 00:32:15;;;;;;;5.63;3.60;;;17.10;99.90;;;;;;4916052;29;20217;-89
2023/06/25 00:34:41;;;;;;;7.55;4.10;;;17.00;99.90;;;;;;4916387;29;20667;-90
2023/06/25 00:37:16;;;;;;;5.13;3.17;;;17.00;99.90;;;;;;4917598;29;20180;-89
2023/06/25 00:39:45;;;;;;;7.80;3.63;;;17.00;99.90;;;;;;4916310;29;20219;-89
2023/06/25 00:42:12;;;;;;;8.35;3.95;;;16.90;99.90;;;;;;4917164;29;20180;-90
2023/06/25 00:44:40;;;;;;;5.63;3.80;;;16.90;99.90;;;;;;4917367;29;20552;-90
2023/06/25 00:47:16;;;;;;;6.18;3.70;;;16.90;99.90;;;;;;4917191;29;20207;-91
2023/06/25 00:49:44;;;;;;;5.85;3.40;;;16.70;99.90;;;;;;4916260;29;20222;-91
2023/06/25 00:52:11;;;;;;;7.78;4.18;;;16.70;99.90;;;;;;4917356;29;20369;-90
2023/06/25 00:54:38;;;;;;;6.57;3.63;;;16.70;99.90;;;;;;4915940;29;20184;-91
2023/06/25 00:57:06;;;;;;;6.45;4.13;;;16.60;99.90;;;;;;4917193;29;20283;-91
2023/06/25 00:59:34;;;;;;;6.47;3.75;;;16.60;99.90;;;;;;4915742;29;20204;-91
2023/06/25 01:02:24;;;;;;;6.50;4.10;;;16.50;99.90;;;;;;4916186;29;20185;-91
2023/06/25 01:05:11;;;;;;;10.50;3.58;;;16.50;99.90;;;;;;4910216;29;20660;-91
2023/06/25 01:07:43;;;;;;;7.20;3.47;;;16.50;99.90;;;;;;4917180;29;20172;-91
2023/06/25 01:10:10;;;;;;;6.88;3.92;;;16.40;99.90;;;;;;4915868;29;20188;-91
2023/06/25 01:12:36;;;;;;;7.43;4.10;;;16.30;99.90;;;;;;4916948;29;20180;-90
2023/06/25 01:15:03;;;;;;;9.00;3.85;;;16.30;99.90;;;;;;4918689;29;20635;-90
2023/06/25 01:17:29;;;;;;;10.10;3.90;;;16.30;99.90;;;;;;4919531;29;20177;-90
2023/06/25 01:19:55;;;;;;;5.63;3.33;;;16.20;99.90;;;;;;4920858;29;20224;-90
2023/06/25 01:22:29;;;;;;;7.13;3.65;;;16.20;99.90;;;;;;4920846;29;20259;-89
2023/06/25 01:24:59;;;;;;;5.90;3.60;;;16.10;99.90;;;;;;4921036;29;20180;-91
2023/06/25 01:27:25;;;;;;;7.72;4.65;;;16.10;99.90;;;;;;4920519;29;20188;-90
2023/06/25 01:29:51;;;;;;;6.68;3.63;;;16.00;99.90;;;;;;4919623;29;20196;-90
2023/06/25 01:32:17;;;;;;;9.02;4.20;;;16.00;99.90;;;;;;4920998;29;20181;-91
2023/06/25 01:34:44;;;;;;;6.93;4.20;;;16.00;99.90;;;;;;4920883;29;20336;-90
2023/06/25 01:37:11;;;;;;;6.40;4.30;;;15.90;99.90;;;;;;4920569;29;20185;-91
2023/06/25 01:39:37;;;;;;;7.50;4.20;;;15.90;99.90;;;;;;4920622;29;20201;-90
2023/06/25 01:42:03;;;;;;;7.38;4.13;;;15.90;99.90;;;;;;4920466;29;20200;-91
2023/06/25 01:44:30;;;;;;;8.63;3.78;;;15.80;99.90;;;;;;4920204;29;20556;-91
2023/06/25 01:46:57;;;;;;;8.00;4.35;;;15.80;99.90;;;;;;4920671;29;20264;-91
2023/06/25 01:49:23;;;;;;;8.18;4.38;;;15.80;99.90;;;;;;4920409;29;20196;-90
2023/06/25 01:51:49;;;;;;;6.97;4.10;;;15.70;99.90;;;;;;4920447;29;20189;-90
2023/06/25 01:54:15;;;;;;;7.32;4.05;;;15.70;99.90;;;;;;4903554;29;20189;-91
2023/06/25 01:56:42;;;;;;;7.45;4.25;;;15.70;99.90;;;;;;4920216;29;20185;-90
2023/06/25 01:59:08;;;;;;;9.95;3.75;;;15.60;99.90;;;;;;4920122;29;20236;-91
2023/06/25 02:01:34;;;;;;;6.72;3.97;;;15.50;99.90;;;;;;4919944;29;20185;-91
2023/06/25 02:04:00;;;;;;;8.75;4.43;;;15.50;99.90;;;;;;4919950;29;20243;-91
2023/06/25 02:06:26;;;;;;;8.13;4.63;;;15.40;99.90;;;;;;4918786;29;20263;-91
2023/06/25 02:08:51;;;;;;;8.38;4.55;;;15.40;99.90;;;;;;4920242;29;20192;-91
2023/06/25 02:11:17;;;;;;;7.60;4.57;;;15.40;99.90;;;;;;4918991;29;20177;-89
2023/06/25 02:13:43;;;;;;;10.20;5.25;;;15.20;99.90;;;;;;4919428;29;20184;-89
2023/06/25 02:16:08;;;;;;;12.70;4.68;;;15.30;99.90;;;;;;4920118;29;20542;-89
2023/06/25 02:18:35;;;;;;;9.88;5.25;;;15.30;99.90;;;;;;4918364;29;20240;-88
2023/06/25 02:21:01;;;;;;;9.75;5.63;;;15.30;99.90;;;;;;4918721;29;20188;-89
2023/06/25 02:23:27;;;;;;;8.13;5.43;;;15.10;99.90;;;;;;4918517;29;20184;-88
2023/06/25 02:25:52;;;;;;;8.52;5.30;;;15.30;99.90;;;;;;4919793;29;20180;-90
2023/06/25 02:28:18;;;;;;;7.50;4.60;;;15.20;99.90;;;;;;4918128;29;20233;-90
2023/06/25 02:30:44;;;;;;;10.40;5.15;;;15.20;99.90;;;;;;4919419;29;20184;-89
2023/06/25 02:33:10;;;;;;;10.95;4.82;;;15.20;99.90;;;;;;4902713;29;20626;-91
2023/06/25 02:35:36;;;;;;;9.05;5.30;;;15.10;99.90;;;;;;4919616;29;20184;-90
2023/06/25 02:38:01;;;;;;;11.77;6.50;;;15.10;99.90;;;;;;4919674;29;20180;-91
2023/06/25 02:40:27;;;;;;;10.93;5.60;;;15.10;99.90;;;;;;4919197;29;20224;-90
2023/06/25 02:42:54;;;;;;;11.50;5.55;;;15.10;99.90;;;;;;4919601;29;20185;-90
2023/06/25 02:45:19;;;;;;;9.55;5.68;;;15.10;99.90;;;;;;4919402;29;20212;-91
2023/06/25 02:47:45;;;;;;;12.52;5.35;;;15.10;99.90;;;;;;4919457;29;20823;-92
2023/06/25 02:50:11;;;;;;;14.13;5.93;;;15.00;99.90;;;;;;4919494;29;20188;-91
2023/06/25 02:52:37;;;;;;;14.60;7.00;;;15.20;99.90;;;;;;4919155;29;20189;-92
2023/06/25 02:55:03;;;;;;;12.00;6.32;;;14.90;99.90;;;;;;4918295;29;20181;-92
2023/06/25 02:57:29;;;;;;;10.63;6.45;;;14.80;99.90;;;;;;4918874;29;20191;-91
2023/06/25 02:59:59;;;;;;;8.35;5.25;;;15.30;99.90;;;;;;4917945;29;20212;-91
2023/06/25 03:02:25;;;;;;;12.30;6.18;;;15.10;99.90;;;;;;4918996;29;20189;-91
2023/06/25 03:04:50;;;;;;;11.98;6.30;;;15.10;99.90;;;;;;4918870;29;20176;-89
2023/06/25 03:07:16;;;;;;;12.93;6.88;;;15.10;99.90;;;;;;4902189;29;20184;-89
2023/06/25 03:09:42;;;;;;;10.23;6.50;;;15.10;99.90;;;;;;4917740;29;20188;-90
2023/06/25 03:12:08;;;;;;;12.02;5.78;;;15.40;99.90;;;;;;4902182;29;20190;-92
2023/06/25 03:14:35;;;;;;;12.35;5.80;;;15.60;99.90;;;;;;4918727;29;20656;-91
2023/06/25 03:17:01;;;;;;;11.63;6.22;;;14.90;99.90;;;;;;4918791;29;20224;-90
2023/06/25 03:19:27;;;;;;;8.68;5.55;;;15.40;99.90;;;;;;4918997;29;20666;-91
2023/06/25 03:21:52;;;;;;;11.25;6.32;;;15.10;99.90;;;;;;4932135;29;20199;-91
2023/06/25 03:24:18;;;;;;;9.90;6.10;;;15.00;99.90;;;;;;4926899;29;20210;-92
2023/06/25 03:26:44;;;;;;;12.48;5.13;;;;;;;;;;4917463;29;20277;-92
2023/06/25 03:29:10;;;;;;;11.43;6.30;;;14.70;99.90;;;;;;4917777;29;20196;-92
2023/06/25 03:31:36;;;;;;;12.88;6.25;;;;;;;;;;4901480;29;20188;-92
2023/06/25 03:34:01;;;;;;;14.80;6.25;;;15.00;99.90;;;;;;4918517;29;20188;-91
2023/06/25 03:36:27;;;;;;;11.95;6.20;;;;;;;;;;4918699;29;20176;-91
2023/06/25 03:38:54;;;;;;;14.05;6.03;;;;;;;;;;4916299;29;20291;-91
2023/06/25 03:41:20;;;;;;;11.93;6.10;;;15.10;99.90;;;;;;4917597;29;20200;-91
2023/06/25 03:43:45;;;;;;;13.32;7.22;;;15.20;99.90;;;;;;4917318;29;20185;-89
2023/06/25 03:46:11;;;;;;;11.10;6.30;;;15.30;99.90;;;;;;4918164;29;20204;-92
2023/06/25 03:48:37;;;;;;;12.98;7.28;;;;;;;;;;4918119;29;20188;-90
2023/06/25 03:51:03;;;;;;;13.32;6.85;;;;;;;;;;4917376;29;20192;-89
2023/06/25 03:53:29;;;;;;;13.68;7.05;;;;;;;;;;4918195;29;20177;-89
2023/06/25 03:55:55;;;;;;;13.60;7.50;;;15.70;99.90;;;;;;4916915;29;20184;-90
2023/06/25 03:58:21;;;;;;;15.88;7.63;;;;;;;;;;4917012;29;20191;-89
2023/06/25 04:00:47;;;;;;;17.63;8.75;;;;;;;;;;4917784;29;20263;-90
2023/06/25 04:03:13;;;;;;;19.45;8.05;;;16.00;99.90;;;;;;4918105;29;20181;-90
2023/06/25 04:05:39;;;;;;;18.38;7.45;;;;;;;;;;4916831;29;20327;-90
2023/06/25 04:08:04;;;;;;;10.40;7.13;;;16.60;99.90;;;;;;4917983;29;20271;-89
2023/06/25 04:10:30;;;;;;;13.68;8.05;;;;;;;;;;4916881;29;20686;-89
2023/06/25 04:12:56;;;;;;;15.88;7.85;;;;;;;;;;4916314;29;20554;-89
2023/06/25 04:15:22;;;;;;;16.17;8.10;;;16.50;99.90;;;;;;4917331;29;20228;-89
2023/06/25 04:17:48;;;;;;;16.55;8.32;;;;;;;;;;4916437;29;20200;-89
2023/06/25 04:20:14;;;;;;;13.25;7.65;;;15.90;99.90;;;;;;4917766;29;20208;-90
2023/06/25 04:22:39;;;;;;;21.65;9.15;;;17.00;99.90;;;;;;4917647;29;20195;-91
2023/06/25 04:25:06;;;;;;;13.50;7.82;;;16.50;99.90;;;;;;4918330;29;20181;-90
2023/06/25 04:27:31;;;;;;;14.13;7.85;;;16.90;99.90;;;;;;4919028;29;20180;-91
2023/06/25 04:29:57;;;;;;;16.48;8.93;;;;;;;;;;4916748;29;20621;-92
2023/06/25 04:32:23;;;;;;;16.98;8.38;;;;;;;;;;4916852;29;20725;-92
2023/06/25 04:34:49;;;;;;;16.23;7.72;;;16.50;99.90;;;;;;4917741;29;20192;-91
2023/06/25 04:37:15;;;;;;;14.77;8.82;;;;;;;;;;4917546;29;20185;-92
2023/06/25 04:39:41;;;;;;;13.77;7.03;;;;;;;;;;4900345;29;20673;-91
2023/06/25 04:42:07;;;;;;;12.45;7.50;;;17.10;99.90;;;;;;4901632;29;20207;-91
2023/06/25 04:44:33;;;;;;;13.07;7.25;;;;;;;;;;4917407;29;20642;-91
2023/06/25 04:46:59;;;;;;;15.50;8.02;;;17.30;99.90;;;;;;4920482;29;20265;-90
2023/06/25 04:49:25;;;;;;;10.95;7.40;;;;;;;;;;4917130;29;20184;-91
2023/06/25 04:51:51;;;;;;;12.60;7.55;;;;;;;;;;4918810;29;20194;-91
2023/06/25 04:54:17;;;;;;;13.30;7.47;;;;;;;;;;4919280;29;20545;-91
2023/06/25 04:56:43;;;;;;;13.90;7.63;;;;;;;;;;4915897;29;20199;-91
2023/06/25 04:59:09;;;;;;;12.40;6.95;;;;;;;;;;4917280;29;20212;-91
2023/06/25 05:01:36;;;;;;;12.95;7.68;;;;;;;;;;4898123;29;20210;-92
2023/06/25 05:04:02;;;;;;;12.70;6.88;;;;;;;;;;4897069;29;20657;-91
2023/06/25 05:06:28;;;;;;;12.60;7.25;;;;;;;;;;4898203;29;20181;-90
2023/06/25 05:08:55;;;;;;;12.70;7.65;;;;;;;;;;4898632;29;20185;-92
2023/06/25 05:11:21;;;;;;;11.93;7.00;;;;;;;;;;4897399;29;20185;-91
2023/06/25 05:13:48;;;;;;;13.35;6.30;;;18.50;99.90;;;;;;4897748;29;20195;-91
2023/06/25 05:16:14;;;;;;;11.43;6.60;;;;;;;;;;4898538;29;20196;-92
2023/06/25 05:18:40;;;;;;;11.90;6.03;;;;;;;;;;4898214;29;20248;-91
2023/06/25 05:21:06;;;;;;;9.98;5.90;;;19.30;99.90;;;;;;4895269;29;20193;-92
2023/06/25 05:23:42;;;;;;;11.00;6.32;;;18.90;99.90;;;;;;4897980;29;20196;-91
2023/06/25 05:26:08;;;;;;;11.55;6.47;;;;;;;;;;4897748;29;20660;-92
2023/06/25 05:28:34;;;;;;;10.65;6.43;;;;;;;;;;4897702;29;20325;-91
2023/06/25 05:31:00;;;;;;;11.90;6.53;;;;;;;;;;4897648;29;20204;-91
2023/06/25 05:33:26;;;;;;;10.27;6.70;;;;;;;;;;4897832;29;20196;-90
2023/06/25 05:35:52;;;;;;;11.65;6.18;;;;;;;;;;4897614;29;20192;-90
2023/06/25 05:38:18;;;;;;;10.27;5.38;;;;;;;;;;4896369;29;20279;-89
2023/06/25 05:40:44;;;;;;;11.02;6.20;;;;;;;;;;4896681;29;20196;-90
2023/06/25 05:43:10;;;;;;;10.75;5.22;;;;;;;;;;4896661;29;20186;-90
2023/06/25 05:45:36;;;;;;;10.80;5.95;;;;;;;;;;4898067;29;20181;-91
2023/06/25 05:48:02;;;;;;;8.82;5.40;;;;;;;;;;4897791;29;20189;-90
2023/06/25 05:50:28;;;;;;;11.95;5.75;;;;;;;;;;4897600;29;20208;-90
2023/06/25 05:52:54;;;;;;;8.13;5.00;;;;;;;;;;4880940;29;20544;-90
2023/06/25 05:55:20;;;;;;;7.18;4.63;;;;;;;;;;4897435;29;20191;-91
2023/06/25 05:57:46;;;;;;;8.05;5.10;;;19.90;99.90;;;;;;4897888;29;20220;-90
2023/06/25 06:00:12;;;;;;;7.35;4.15;;;20.80;99.90;;;;;;4897442;29;20241;-91
2023/06/25 06:02:38;;;;;;;8.15;4.95;;;;;;;;;;4898834;29;20276;-91
2023/06/25 06:05:04;;;;;;;6.28;3.75;;;20.40;99.90;;;;;;4899542;29;20181;-91
2023/06/25 06:07:30;;;;;;;6.35;4.55;;;;;;;;;;4899826;29;20245;-94
2023/06/25 06:09:58;;;;;;;7.63;4.43;;;;;;;;;;4900481;29;20272;-85
2023/06/25 06:12:24;;;;;;;7.82;4.30;;;;;;;;;;4898945;29;20241;-87
2023/06/25 06:14:49;;;;;;;5.15;3.65;;;20.90;99.90;;;;;;4900587;29;20240;-86
2023/06/25 06:17:15;;;;;;;5.88;3.67;;;20.90;99.90;;;;;;4901110;29;20181;-87
2023/06/25 06:19:41;;;;;;;5.88;3.85;;;21.10;99.90;;;;;;4900026;29;20259;-86
2023/06/25 06:22:07;;;;;;;7.72;4.40;;;;;;;;;;4899774;29;20181;-85
2023/06/25 06:24:33;;;;;;;7.50;4.72;;;;;;;;;;4899955;29;20192;-85
2023/06/25 06:26:59;;;;;;;9.95;5.10;;;;;;;;;;4900614;29;20737;-85
2023/06/25 06:29:25;;;;;;;5.38;2.92;;;;;;;;;;4899514;29;20193;-86
2023/06/25 06:31:51;;;;;;;5.00;3.40;;;;;;;;;;4898889;29;20193;-84
2023/06/25 06:34:17;;;;;;;6.28;3.70;;;21.30;99.90;;;;;;4900328;29;20209;-88
2023/06/25 06:36:43;;;;;;;5.97;3.83;;;21.80;99.90;;;;;;4901084;29;20241;-86
2023/06/25 06:39:08;;;;;;;5.88;3.47;;;21.40;99.90;;;;;;4883471;29;20209;-85
2023/06/25 06:41:34;;;;;;;5.85;3.83;;;;;;;;;;4897946;29;20193;-85
2023/06/25 06:44:12;;;;;;;7.10;3.65;;;21.70;99.90;;;;;;4898621;29;20193;-84
2023/06/25 06:46:38;;;;;;;5.95;3.70;;;;;;;;;;4898575;29;20233;-87
2023/06/25 06:49:04;;;;;;;5.30;3.40;;;;;;;;;;4883195;29;20196;-84
2023/06/25 06:51:30;;;;;;;4.60;3.25;;;;;;;;;;4898608;29;20658;-86
2023/06/25 06:53:56;;;;;;;5.38;3.30;;;;;;;;;;4899542;29;20185;-86
2023/06/25 06:56:22;;;;;;;6.60;3.33;;;;;;;;;;4896984;29;20693;-86
2023/06/25 06:58:48;;;;;;;7.55;3.50;;;21.90;99.90;;;;;;4897153;29;20225;-85
2023/06/25 07:01:14;;;;;;;5.60;3.58;;;22.40;99.90;;;;;;4899423;29;20188;-85
2023/06/25 07:03:40;;;;;;;7.10;4.25;;;;;;;;;;4898528;29;20205;-86
2023/06/25 07:06:06;;;;;;;6.57;3.15;;;;;;;;;;4907030;29;20248;-86
2023/06/25 07:08:31;;;;;;;3.88;3.20;;;22.30;99.90;;;;;;4923139;29;20213;-86
2023/06/25 07:10:57;;;;;;;5.35;3.13;;;;;;;;;;4906539;29;20200;-86
2023/06/25 07:13:23;;;;;;;6.30;3.35;;;;;;;;;;4898708;29;20197;-87
2023/06/25 07:15:49;;;;;;;6.57;3.50;;;;;;;;;;4898041;29;20247;-85
2023/06/25 07:18:15;;;;;;;5.80;3.40;;;;;;;;;;4897775;29;20697;-86
2023/06/25 07:20:41;;;;;;;6.35;4.50;;;;;;;;;;4908639;29;20256;-87
2023/06/25 07:23:07;;;;;;;5.45;3.53;;;;;;;;;;4894202;29;20178;-87
2023/06/25 07:25:35;;;;;;;8.40;3.92;;;;;;;;;;4898062;29;20718;-89
2023/06/25 07:28:02;;;;;;;4.65;3.38;;;23.00;97.50;;;;;;4890501;29;20190;-87
2023/06/25 07:30:27;;;;;;;5.15;3.80;;;23.00;97.90;;;;;;4885249;29;20200;-85
2023/06/25 07:32:53;;;;;;;4.95;3.90;;;23.00;99.90;;;;;;4901094;29;20285;-88
2023/06/25 07:35:19;;;;;;;6.95;4.20;;;;;;;;;;4893353;29;20670;-86
2023/06/25 07:37:45;;;;;;;4.97;3.33;;;;;;;;;;4892596;29;20198;-86
2023/06/25 07:40:11;;;;;;;6.40;4.10;;;;;;;;;;4894726;29;20279;-85
2023/06/25 07:42:37;;;;;;;6.20;3.67;;;23.10;96.30;;;;;;4879293;29;20205;-85
2023/06/25 07:45:03;;;;;;;4.72;3.40;;;23.20;96.30;;;;;;4894108;29;20186;-84
2023/06/25 07:47:28;;;;;;;5.20;3.50;;;23.30;94.90;;;;;;4895194;29;20185;-85
2023/06/25 07:49:54;;;;;;;5.32;3.47;;;23.30;93.60;;;;;;4903371;29;20228;-85
2023/06/25 07:52:20;;;;;;;6.05;3.38;;;23.20;93.70;;;;;;4903160;29;20233;-85
2023/06/25 07:54:45;;;;;;;6.15;3.47;;;23.10;94.70;;;;;;4896992;29;20662;-85
2023/06/25 07:57:11;;;;;;;5.78;3.65;;;23.00;94.20;;;;;;4897311;29;20691;-90
2023/06/25 07:59:36;;;;;;;6.03;3.45;;;23.00;93.90;;;;;;4903938;29;20690;-85
2023/06/25 08:02:02;;;;;;;3.60;2.90;;;23.00;94.30;;;;;;4896953;29;20200;-84
2023/06/25 08:04:28;;;;;;;6.07;3.83;;;;;;;;;;4897264;29;20570;-86
2023/06/25 08:06:54;;;;;;;5.78;3.47;;;23.00;93.20;;;;;;4895763;29;20189;-86
2023/06/25 08:09:19;;;;;;;5.55;3.50;;;22.80;93.90;;;;;;4897500;29;20208;-85
2023/06/25 08:11:45;;;;;;;6.25;3.38;;;22.90;93.70;;;;;;4891444;29;20220;-84
2023/06/25 08:14:11;;;;;;;5.88;3.72;;;22.90;94.10;;;;;;4898123;29;20236;-84
2023/06/25 08:16:36;;;;;;;4.35;3.00;;;23.10;92.80;;;;;;4901819;29;20205;-86
2023/06/25 08:19:03;;;;;;;3.72;2.75;;;23.20;95.10;;;;;;4896727;29;20272;-85
2023/06/25 08:21:28;;;;;;;3.53;2.90;;;23.40;93.00;;;;;;4880089;29;20197;-85
2023/06/25 08:23:54;;;;;;;4.85;3.13;;;23.50;93.10;;;;;;4896305;29;20296;-86
2023/06/25 08:26:20;;;;;;;4.53;3.05;;;23.70;93.20;;;;;;4896506;29;20649;-85
2023/06/25 08:28:45;;;;;;;6.07;3.38;;;23.60;92.50;;;;;;4894401;29;20673;-86
2023/06/25 08:31:11;;;;;;;5.38;3.83;;;23.70;92.80;;;;;;4894612;29;20680;-84
2023/06/25 08:33:38;;;;;;;3.08;2.75;;;23.70;92.50;;;;;;4891972;29;20245;-86
2023/06/25 08:36:04;;;;;;;4.50;3.22;;;23.80;91.20;;;;;;4895082;29;20216;-85
2023/06/25 08:38:31;;;;;;;5.45;3.50;;;;;;;;;;4887092;29;20192;-85
2023/06/25 08:40:57;;;;;;;5.03;3.10;;;24.20;91.20;;;;;;4895514;29;20196;-87
2023/06/25 08:43:23;;;;;;;6.15;3.30;;;24.30;90.50;;;;;;4900783;29;20185;-89
2023/06/25 08:45:49;;;;;;;5.82;3.33;;;24.30;90.20;;;;;;4902487;29;20197;-85
2023/06/25 08:48:15;;;;;;;8.48;3.20;;;;;;;;;;4896591;29;20654;-87
2023/06/25 08:50:42;;;;;;;5.43;3.45;;;24.20;90.10;;;;;;4890708;29;20186;-87
2023/06/25 08:53:09;;;;;;;4.68;3.40;;;24.00;91.30;;;;;;4894062;29;20273;-88
2023/06/25 08:55:35;;;;;;;4.78;3.20;;;24.00;90.50;;;;;;4895191;29;20197;-85
2023/06/25 08:58:01;;;;;;;4.38;3.47;;;23.80;91.20;;;;;;4892759;29;20272;-86
2023/06/25 09:00:26;;;;;;;5.30;3.33;;;23.80;91.30;;;;;;4890111;29;20319;-86
2023/06/25 09:02:54;;;;;;;5.03;3.13;;;23.90;91.80;;;;;;4888612;29;20197;-86
2023/06/25 09:05:27;;;;;;;4.88;3.63;;;24.00;90.10;;;;;;4888540;29;20189;-91
2023/06/25 09:07:54;;;;;;;5.30;3.08;;;23.60;89.20;;;;;;4889490;29;20260;-86
2023/06/25 09:10:20;;;;;;;4.93;3.30;;;23.50;89.70;;;;;;4894049;29;20461;-88
2023/06/25 09:12:49;;;;;;;3.67;2.83;;;23.30;88.80;;;;;;4876472;29;20193;-87
2023/06/25 09:15:20;;;;;;;6.13;3.58;;;23.30;89.40;;;;;;4889555;29;20748;-88
2023/06/25 09:17:46;;;;;;;5.10;3.70;;;;;;;;;;4889560;29;20199;-87
2023/06/25 09:20:13;;;;;;;4.70;3.28;;;23.40;90.00;;;;;;4886767;29;20225;-86
2023/06/25 09:22:53;;;;;;;4.93;3.80;;;23.40;90.30;;;;;;4869476;29;20657;-86
2023/06/25 09:25:20;;;;;;;4.30;3.25;;;23.70;87.50;;;;;;4884576;29;20184;-86
2023/06/25 09:27:48;;;;;;;4.13;2.90;;;23.70;88.30;;;;;;4881627;29;20655;-87
2023/06/25 09:30:14;;;;;;;5.45;3.10;;;23.70;88.30;;;;;;4879704;29;20200;-86
2023/06/25 09:32:53;;;;;;;6.30;3.45;;;23.50;88.90;;;;;;4876855;29;20569;-86
2023/06/25 09:35:22;;;;;;;3.40;2.92;;;23.40;90.40;;;;;;4878868;29;20731;-86
2023/06/25 09:37:51;;;;;;;8.45;3.60;;;23.40;89.80;;;;;;4900241;29;20649;-87
2023/06/25 09:40:17;;;;;;;4.53;3.17;;;23.60;88.90;;;;;;4899390;29;20213;-86
2023/06/25 09:42:46;;;;;;;4.53;3.22;;;23.90;90.10;;;;;;4898799;29;20193;-88
2023/06/25 09:45:17;;;;;;;4.43;3.42;;;24.20;90.00;;;;;;4899563;29;20669;-84
2023/06/25 09:47:45;;;;;;;4.18;3.03;;;24.20;90.30;;;;;;4899782;29;20212;-86
2023/06/25 09:50:32;;;;;;;6.47;3.60;;;24.40;83.10;;;;;;4902035;29;20714;-88
2023/06/25 09:53:02;;;;;;;4.65;3.15;;;24.50;80.60;;;;;;4898322;29;20192;-92
2023/06/25 09:55:29;;;;;;;4.22;2.90;;;24.50;84.40;;;;;;4904754;29;20218;-87
2023/06/25 09:57:55;;;;;;;4.20;2.72;;;24.70;77.90;;;;;;4893767;29;20197;-86
2023/06/25 10:00:23;;;;;;;3.85;2.90;;;24.90;78.10;;;;;;4898955;29;22224;-88
2023/06/25 10:02:49;;;;;;;4.15;3.13;;;25.10;76.90;;;;;;4901974;29;20271;-89
2023/06/25 10:05:16;;;;;;;5.95;2.90;;;;;;;;;;4894083;29;20182;-87
2023/06/25 10:07:43;;;;;;;3.50;2.33;;;25.40;74.20;;;;;;4894476;29;20245;-87
2023/06/25 10:10:20;;;;;;;3.53;2.90;;;25.20;72.40;;;;;;4899108;29;20642;-87
2023/06/25 10:12:47;;;;;;;3.03;2.50;;;25.10;69.80;;;;;;4900651;29;20292;-86
2023/06/25 10:15:12;;;;;;;5.03;2.92;;;25.30;69.50;;;;;;4909327;29;20288;-87
2023/06/25 10:17:51;;;;;;;3.85;2.83;;;25.30;69.20;;;;;;4897607;29;20646;-86
2023/06/25 10:20:34;;;;;;;3.38;2.58;;;25.30;69.90;;;;;;4899680;29;20250;-85
2023/06/25 10:23:03;;;;;;;4.53;3.15;;;25.30;68.60;;;;;;4885365;29;20189;-86
2023/06/25 10:25:29;;;;;;;3.97;2.92;;;25.00;71.60;;;;;;4893987;29;20209;-85
2023/06/25 10:28:07;;;;;;;6.25;3.20;;;24.80;74.10;;;;;;4867248;29;20671;-85
2023/06/25 10:30:47;;;;;;;5.80;3.13;;;25.10;74.40;;;;;;4884839;29;20291;-87
2023/06/25 10:33:17;;;;;;;4.30;2.85;;;23.90;69.50;;;;;;4897654;29;20192;-85
2023/06/25 10:35:46;;;;;;;5.25;3.15;;;25.60;67.90;;;;;;4903879;29;20223;-87
2023/06/25 10:38:12;;;;;;;4.47;3.03;;;;;;;;;;4892617;29;20182;-84
2023/06/25 10:40:40;;;;;;;3.45;2.53;;;25.80;63.10;;;;;;4901781;29;20585;-84
2023/06/25 10:43:06;;;;;;;5.00;2.80;;;;;;;;;;4895604;29;20192;-86
2023/06/25 10:45:32;;;;;;;8.07;2.65;;;25.80;63.40;;;;;;4887377;29;20308;-87
2023/06/25 10:48:07;;;;;;;3.50;2.78;;;26.00;64.60;;;;;;4888347;29;20264;-86
2023/06/25 10:50:34;;;;;;;6.07;3.40;;;26.10;64.40;;;;;;4908737;29;20204;-86
2023/06/25 10:53:01;;;;;;;4.35;2.92;;;25.90;67.90;;;;;;4895352;29;20574;-86
2023/06/25 10:55:26;;;;;;;5.88;3.10;;;25.90;68.70;;;;;;4899833;29;20189;-85
2023/06/25 10:57:54;;;;;;;5.20;2.78;;;26.20;69.50;;;;;;4895613;29;20275;-86
2023/06/25 11:00:25;;;;;;;10.85;3.42;;;26.20;70.10;;;;;;4893733;29;20236;-86
2023/06/25 11:02:56;;;;;;;4.82;3.28;;;26.50;67.30;;;;;;4891844;29;20186;-86
2023/06/25 11:05:34;;;;;;;3.63;2.60;;;25.90;67.20;;;;;;4891285;29;20220;-87
2023/06/25 11:08:00;;;;;;;3.72;2.53;;;25.50;68.60;;;;;;4884806;29;20182;-86
2023/06/25 11:10:26;;;;;;;3.28;2.55;;;25.60;64.10;;;;;;4895264;29;20193;-85
2023/06/25 11:12:52;;;;;;;3.97;2.20;;;25.70;62.20;;;;;;4882792;29;20273;-87
2023/06/25 11:15:18;;;;;;;2.97;2.28;;;25.90;60.30;;;;;;4884633;29;20264;-85
2023/06/25 11:17:45;;;;;;;3.45;2.40;;;26.00;58.60;;;;;;4899699;29;20208;-87
2023/06/25 11:20:13;;;;;;;5.28;2.75;;;26.00;58.60;;;;;;4899128;29;20224;-87
2023/06/25 11:22:41;;;;;;;3.08;2.60;;;26.40;58.50;;;;;;4871871;29;20193;-83
2023/06/25 11:25:08;;;;;;;6.43;3.05;;;26.40;59.00;;;;;;4896745;29;20749;-86
2023/06/25 11:27:34;;;;;;;2.90;2.40;;;26.40;60.00;;;;;;4877533;29;20242;-86
2023/06/25 11:30:03;;;;;;;3.20;2.28;;;26.50;57.90;;;;;;4886403;29;20218;-86
2023/06/25 11:32:29;;;;;;;3.67;2.53;;;26.60;56.70;;;;;;4894184;29;20264;-84
2023/06/25 11:34:55;;;;;;;3.17;2.72;;;;;;;;;;4893775;29;20221;-85
2023/06/25 11:37:22;;;;;;;3.20;2.05;;;26.50;57.90;;;;;;4892827;29;20200;-86
2023/06/25 11:39:52;;;;;;;2.80;2.38;;;26.60;59.10;;;;;;4885894;29;20381;-86
